createdAt,value
2023-05-20T00:00:24.028Z,46.92
2023-05-20T00:02:53.465Z,48.42
2023-05-20T00:05:22.890Z,45.38
2023-05-20T00:07:52.208Z,43.50
2023-05-20T00:10:21.574Z,44.50
2023-05-20T00:12:50.953Z,42.92
2023-05-20T00:15:20.471Z,60.22
2023-05-20T00:17:49.852Z,53.75
2023-05-20T00:20:19.580Z,47.47
2023-05-20T00:22:48.940Z,47.83
2023-05-20T00:25:18.444Z,48.10
2023-05-20T00:27:48.366Z,47.22
2023-05-20T00:30:17.925Z,52.42
2023-05-20T00:32:47.536Z,60.58
2023-05-20T00:35:16.954Z,50.35
2023-05-20T00:37:46.408Z,44.05
2023-05-20T00:40:17.321Z,58.30
2023-05-20T00:42:46.795Z,48.30
2023-05-20T00:45:16.126Z,50.17
2023-05-20T00:47:46.719Z,49.80
2023-05-20T00:50:16.545Z,48.60
2023-05-20T00:52:49.213Z,53.35
2023-05-20T00:55:18.790Z,49.60
2023-05-20T00:57:48.898Z,47.45
2023-05-20T01:00:19.289Z,45.85
2023-05-20T01:02:48.971Z,46.65
2023-05-20T01:05:18.459Z,48.85
2023-05-20T01:07:48.087Z,48.78
2023-05-20T01:10:17.631Z,43.83
2023-05-20T01:12:57.494Z,43.13
2023-05-20T01:15:29.966Z,49.67
2023-05-20T01:18:19.480Z,45.60
2023-05-20T01:20:59.987Z,53.03
2023-05-20T01:23:48.824Z,41.90
2023-05-20T01:26:19.852Z,50.38
2023-05-20T01:28:54.658Z,50.85
2023-05-20T01:31:34.175Z,50.08
2023-05-20T01:34:10.160Z,54.35
2023-05-20T01:36:41.633Z,52.38
2023-05-20T01:39:11.812Z,48.67
2023-05-20T01:41:42.954Z,40.17
2023-05-20T01:44:15.695Z,42.13
2023-05-20T01:46:53.617Z,45.72
2023-05-20T01:49:23.212Z,49.58
2023-05-20T01:51:52.724Z,42.38
2023-05-20T01:54:22.467Z,56.22
2023-05-20T01:56:52.425Z,51.13
2023-05-20T01:59:21.824Z,70.35
2023-05-20T02:01:51.748Z,47.08
2023-05-20T02:04:23.584Z,47.20
2023-05-20T02:06:53.046Z,52.38
2023-05-20T02:09:22.319Z,53.17
2023-05-20T02:11:51.681Z,48.03
2023-05-20T02:14:21.047Z,50.90
2023-05-20T02:16:50.496Z,38.55
2023-05-20T02:19:24.607Z,48.83
2023-05-20T02:21:54.037Z,35.22
2023-05-20T02:24:23.435Z,48.03
2023-05-20T02:26:54.845Z,44.17
2023-05-20T02:29:24.238Z,36.78
2023-05-20T02:31:54.825Z,42.38
2023-05-20T02:34:32.462Z,37.20
2023-05-20T02:37:02.469Z,45.83
2023-05-20T02:39:35.869Z,39.72
2023-05-20T02:42:08.008Z,37.17
2023-05-20T02:44:37.344Z,33.72
2023-05-20T02:47:07.320Z,32.78
2023-05-20T02:49:36.930Z,41.40
2023-05-20T02:52:06.773Z,40.03
2023-05-20T02:54:36.741Z,40.08
2023-05-20T02:57:06.342Z,32.42
2023-05-20T02:59:35.730Z,29.80
2023-05-20T03:04:48.749Z,38.13
2023-05-20T03:07:26.548Z,37.45
2023-05-20T03:09:56.177Z,35.30
2023-05-20T03:12:27.338Z,34.58
2023-05-20T03:14:56.709Z,33.45
2023-05-20T03:17:26.134Z,38.20
2023-05-20T03:19:55.832Z,32.17
2023-05-20T03:22:25.101Z,35.63
2023-05-20T03:24:54.459Z,30.08
2023-05-20T03:27:23.905Z,33.95
2023-05-20T03:29:57.970Z,33.88
2023-05-20T03:32:34.698Z,40.20
2023-05-20T03:35:06.135Z,33.00
2023-05-20T03:37:37.088Z,31.30
2023-05-20T03:40:07.330Z,35.20
2023-05-20T03:42:37.334Z,37.00
2023-05-20T03:45:10.468Z,33.50
2023-05-20T03:47:39.956Z,24.45
2023-05-20T03:50:12.473Z,35.00
2023-05-20T03:52:42.426Z,36.58
2023-05-20T03:55:16.416Z,37.17
2023-05-20T03:57:52.111Z,28.85
2023-05-20T04:00:21.579Z,28.50
2023-05-20T04:02:51.225Z,37.20
2023-05-20T04:05:20.953Z,30.35
2023-05-20T04:07:50.822Z,28.70
2023-05-20T04:10:27.091Z,31.00
2023-05-20T04:12:56.621Z,39.00
2023-05-20T04:15:26.757Z,42.90
2023-05-20T04:17:57.070Z,39.70
2023-05-20T04:20:26.735Z,153.38
2023-05-20T04:23:00.106Z,67.95
2023-05-20T04:25:31.562Z,41.40
2023-05-20T04:28:02.455Z,43.03
2023-05-20T04:30:34.528Z,29.65
2023-05-20T04:33:07.325Z,35.40
2023-05-20T04:35:38.690Z,42.28
2023-05-20T04:38:08.553Z,32.72
2023-05-20T04:40:40.108Z,40.60
2023-05-20T04:43:09.532Z,34.03
2023-05-20T04:45:39.044Z,26.83
2023-05-20T04:48:15.217Z,33.00
2023-05-20T04:50:45.542Z,31.90
2023-05-20T04:53:15.408Z,24.67
2023-05-20T04:55:45.884Z,29.98
2023-05-20T04:58:21.455Z,23.52
2023-05-20T05:00:51.375Z,27.02
2023-05-20T05:03:20.940Z,28.95
2023-05-20T05:05:50.453Z,24.55
2023-05-20T05:08:19.793Z,23.52
2023-05-20T05:10:49.305Z,29.90
2023-05-20T05:13:21.462Z,25.60
2023-05-20T05:16:00.631Z,32.45
2023-05-20T05:18:30.353Z,32.53
2023-05-20T05:21:13.560Z,25.27
2023-05-20T05:23:43.680Z,19.88
2023-05-20T05:26:13.124Z,28.10
2023-05-20T05:28:47.218Z,28.70
2023-05-20T05:31:16.619Z,29.65
2023-05-20T05:33:45.966Z,34.55
2023-05-20T05:36:15.426Z,29.77
2023-05-20T05:38:46.040Z,26.10
2023-05-20T05:41:15.450Z,32.13
2023-05-20T05:43:44.765Z,23.83
2023-05-20T05:46:14.192Z,28.60
2023-05-20T05:48:44.155Z,25.98
2023-05-20T05:51:13.464Z,22.50
2023-05-20T05:53:43.203Z,29.95
2023-05-20T05:56:13.033Z,23.75
2023-05-20T05:58:42.437Z,23.75
2023-05-20T06:01:11.799Z,30.30
2023-05-20T06:03:41.301Z,22.23
2023-05-20T06:06:10.704Z,28.98
2023-05-20T06:08:40.021Z,34.38
2023-05-20T06:11:11.390Z,28.08
2023-05-20T06:13:40.870Z,24.50
2023-05-20T06:16:10.295Z,27.92
2023-05-20T06:18:39.693Z,27.00
2023-05-20T06:21:09.054Z,27.15
2023-05-20T06:23:38.325Z,22.35
2023-05-20T06:26:07.714Z,29.60
2023-05-20T06:28:37.153Z,23.77
2023-05-20T06:31:07.340Z,21.08
2023-05-20T06:33:37.749Z,25.60
2023-05-20T06:36:07.225Z,26.42
2023-05-20T06:38:36.698Z,27.58
2023-05-20T06:41:06.398Z,23.60
2023-05-20T06:43:35.745Z,25.33
2023-05-20T06:46:05.423Z,24.13
2023-05-20T06:48:34.902Z,27.10
2023-05-20T06:51:05.568Z,29.23
2023-05-20T06:53:36.201Z,25.00
2023-05-20T06:56:05.657Z,26.27
2023-05-20T06:58:35.539Z,24.52
2023-05-20T07:01:05.012Z,21.95
2023-05-20T07:03:34.414Z,22.13
2023-05-20T07:06:03.992Z,28.63
2023-05-20T07:08:33.359Z,26.10
2023-05-20T07:11:14.220Z,22.48
2023-05-20T07:13:43.599Z,28.20
2023-05-20T07:16:12.937Z,32.92
2023-05-20T07:18:42.410Z,28.52
2023-05-20T07:21:11.823Z,27.02
2023-05-20T07:23:41.405Z,24.98
2023-05-20T07:26:10.743Z,28.58
2023-05-20T07:28:41.208Z,26.08
2023-05-20T07:31:10.555Z,24.65
2023-05-20T07:33:40.047Z,23.70
2023-05-20T07:36:11.068Z,25.95
2023-05-20T07:38:56.483Z,21.98
2023-05-20T07:41:30.613Z,26.52
2023-05-20T07:43:59.934Z,26.20
2023-05-20T07:46:29.321Z,22.98
2023-05-20T07:48:58.980Z,25.10
2023-05-20T07:51:28.533Z,20.50
2023-05-20T07:53:58.282Z,21.02
2023-05-20T07:56:27.710Z,22.63
2023-05-20T07:59:00.987Z,23.95
2023-05-20T08:01:30.713Z,29.33
2023-05-20T08:04:00.270Z,30.83
2023-05-20T08:06:30.040Z,20.65
2023-05-20T08:08:59.529Z,26.80
2023-05-20T08:11:29.135Z,23.27
2023-05-20T08:13:58.540Z,21.17
2023-05-20T08:16:27.882Z,26.08
2023-05-20T08:18:57.312Z,21.02
2023-05-20T08:21:26.695Z,27.08
2023-05-20T08:23:56.351Z,24.90
2023-05-20T08:26:25.646Z,30.70
2023-05-20T08:28:55.008Z,19.88
2023-05-20T08:31:24.404Z,23.63
2023-05-20T08:33:53.827Z,20.67
2023-05-20T08:36:23.274Z,20.15
2023-05-20T08:38:53.931Z,20.90
2023-05-20T08:41:23.743Z,29.63
2023-05-20T08:43:54.801Z,22.35
2023-05-20T08:46:25.115Z,23.50
2023-05-20T08:48:54.518Z,25.38
2023-05-20T08:51:28.204Z,24.52
2023-05-20T08:53:58.292Z,18.88
2023-05-20T08:56:31.119Z,25.20
2023-05-20T08:59:00.904Z,27.83
2023-05-20T09:01:30.406Z,26.35
2023-05-20T09:04:06.301Z,29.20
2023-05-20T09:06:50.770Z,26.75
2023-05-20T09:09:31.310Z,24.00
2023-05-20T09:12:05.288Z,27.95
2023-05-20T09:14:35.027Z,32.83
2023-05-20T09:17:05.940Z,30.30
2023-05-20T09:19:35.983Z,20.90
2023-05-20T09:22:07.111Z,20.70
2023-05-20T09:24:36.547Z,23.40
2023-05-20T09:27:06.450Z,20.13
2023-05-20T09:29:36.208Z,25.23
2023-05-20T09:32:14.067Z,31.48
2023-05-20T09:34:56.643Z,17.92
2023-05-20T09:37:31.968Z,22.15
2023-05-20T09:40:10.648Z,30.02
2023-05-20T09:42:58.600Z,24.05
2023-05-20T09:45:28.238Z,24.38
2023-05-20T09:47:59.140Z,30.88
2023-05-20T09:50:29.921Z,30.90
2023-05-20T09:53:04.886Z,29.00
2023-05-20T09:55:35.456Z,22.33
2023-05-20T09:58:05.700Z,22.35
2023-05-20T10:00:35.600Z,23.95
2023-05-20T10:03:05.760Z,28.08
2023-05-20T10:05:43.247Z,32.38
2023-05-20T10:08:49.995Z,26.58
2023-05-20T10:11:37.823Z,21.05
2023-05-20T10:14:33.481Z,25.58
2023-05-20T10:17:30.214Z,27.38
2023-05-20T10:20:05.890Z,24.02
2023-05-20T10:22:36.030Z,27.60
2023-05-20T10:25:11.202Z,26.33
2023-05-20T10:27:49.401Z,22.48
2023-05-20T10:30:23.863Z,26.83
2023-05-20T10:33:06.011Z,21.17
2023-05-20T10:35:35.474Z,29.95
2023-05-20T10:38:14.486Z,22.42
2023-05-20T10:40:44.446Z,20.10
2023-05-20T10:43:27.632Z,22.13
2023-05-20T10:46:04.828Z,28.88
2023-05-20T10:48:36.053Z,27.33
2023-05-20T10:51:06.061Z,33.88
2023-05-20T10:53:46.729Z,23.70
2023-05-20T10:56:25.229Z,26.60
2023-05-20T10:58:58.001Z,28.40
2023-05-20T11:01:28.979Z,26.95
2023-05-20T11:04:02.576Z,32.63
2023-05-20T11:06:42.020Z,31.67
2023-05-20T11:09:27.648Z,23.55
2023-05-20T11:11:57.221Z,23.33
2023-05-20T11:14:29.323Z,23.25
2023-05-20T11:19:40.661Z,29.23
2023-05-20T11:22:10.538Z,36.38
2023-05-20T11:24:40.171Z,23.20
2023-05-20T11:27:15.479Z,17.33
2023-05-20T11:29:45.070Z,23.85
2023-05-20T11:32:15.065Z,20.15
2023-05-20T11:37:33.081Z,26.98
2023-05-20T11:40:11.035Z,22.83
2023-05-20T11:42:40.334Z,23.90
2023-05-20T11:45:15.446Z,28.20
2023-05-20T11:48:05.437Z,44.83
2023-05-20T11:50:45.678Z,21.10
2023-05-20T11:53:21.033Z,24.70
2023-05-20T11:56:01.423Z,30.45
2023-05-20T11:58:34.104Z,27.88
2023-05-20T12:01:17.944Z,36.75
2023-05-20T12:03:52.138Z,29.48
2023-05-20T12:06:23.077Z,30.35
2023-05-20T12:09:06.356Z,24.55
2023-05-20T12:11:47.748Z,29.75
2023-05-20T12:14:17.203Z,28.80
2023-05-20T12:16:46.787Z,38.33
2023-05-20T12:19:17.110Z,31.67
2023-05-20T12:21:48.466Z,27.58
2023-05-20T12:24:17.844Z,27.98
2023-05-20T12:26:47.214Z,24.65
2023-05-20T12:29:16.883Z,24.55
2023-05-20T12:31:50.544Z,24.95
2023-05-20T12:34:20.027Z,27.35
2023-05-20T12:36:49.629Z,25.35
2023-05-20T12:39:20.672Z,25.63
2023-05-20T12:41:50.393Z,28.77
2023-05-20T12:44:21.446Z,33.58
2023-05-20T12:46:50.824Z,27.10
2023-05-20T12:49:22.766Z,27.20
2023-05-20T12:51:52.231Z,32.78
2023-05-20T12:54:22.773Z,26.33
2023-05-20T12:56:52.276Z,26.67
2023-05-20T12:59:22.130Z,28.80
2023-05-20T13:01:51.523Z,24.17
2023-05-20T13:04:21.178Z,30.02
2023-05-20T13:06:50.755Z,27.75
2023-05-20T13:09:22.076Z,22.77
2023-05-20T13:11:51.475Z,31.58
2023-05-20T13:14:20.912Z,27.33
2023-05-20T13:16:55.525Z,29.33
2023-05-20T13:19:26.262Z,31.48
2023-05-20T13:22:02.612Z,36.03
2023-05-20T13:24:54.611Z,31.08
2023-05-20T13:27:24.213Z,25.55
2023-05-20T13:29:53.551Z,37.72
2023-05-20T13:32:27.976Z,29.52
2023-05-20T13:34:58.174Z,33.00
2023-05-20T13:37:27.922Z,28.52
2023-05-20T13:39:57.222Z,38.17
2023-05-20T13:42:26.458Z,27.52
2023-05-20T13:44:55.954Z,32.42
2023-05-20T13:47:28.088Z,23.70
2023-05-20T13:50:03.487Z,31.90
2023-05-20T13:52:35.722Z,36.78
2023-05-20T13:57:50.759Z,26.13
2023-05-20T14:00:20.218Z,31.17
2023-05-20T14:02:49.688Z,27.13
2023-05-20T14:05:20.076Z,28.65
2023-05-20T14:07:49.521Z,28.30
2023-05-20T14:10:19.003Z,31.48
2023-05-20T14:12:49.255Z,35.75
2023-05-20T14:15:18.704Z,30.33
2023-05-20T14:17:58.390Z,23.15
2023-05-20T14:20:29.540Z,29.23
2023-05-20T14:25:45.344Z,25.02
2023-05-20T14:28:23.577Z,28.80
2023-05-20T14:30:55.711Z,27.30
2023-05-20T14:33:28.365Z,27.90
2023-05-20T14:35:57.905Z,33.75
2023-05-20T14:38:30.541Z,29.08
2023-05-20T14:41:00.016Z,32.08
2023-05-20T14:43:29.561Z,36.20
2023-05-20T14:46:01.562Z,25.95
2023-05-20T14:48:31.000Z,38.50
2023-05-20T14:51:00.277Z,28.05
2023-05-20T14:53:29.587Z,32.20
2023-05-20T14:55:59.047Z,23.67
2023-05-20T14:58:28.547Z,25.88
2023-05-20T15:01:02.745Z,25.80
2023-05-20T15:03:32.800Z,26.58
2023-05-20T15:06:02.233Z,27.02
2023-05-20T15:08:31.709Z,26.77
2023-05-20T15:11:01.327Z,31.60
2023-05-20T15:13:30.736Z,34.10
2023-05-20T15:16:03.107Z,28.63
2023-05-20T15:18:35.445Z,27.35
2023-05-20T15:21:06.930Z,27.80
2023-05-20T15:23:36.301Z,29.20
2023-05-20T15:26:06.506Z,31.02
2023-05-20T15:28:38.920Z,26.48
2023-05-20T15:31:08.999Z,20.60
2023-05-20T15:33:38.650Z,24.73
2023-05-20T15:36:08.402Z,26.23
2023-05-20T15:38:37.794Z,28.40
2023-05-20T15:41:07.771Z,29.92
2023-05-20T15:43:37.303Z,27.38
2023-05-20T15:46:06.997Z,23.45
2023-05-20T15:48:38.858Z,25.90
2023-05-20T15:51:08.391Z,23.25
2023-05-20T15:53:39.373Z,25.48
2023-05-20T15:56:12.552Z,29.52
2023-05-20T15:58:42.162Z,27.27
2023-05-20T16:01:11.700Z,28.52
2023-05-20T16:03:41.882Z,27.35
2023-05-20T16:06:16.050Z,28.13
2023-05-20T16:08:48.464Z,26.75
2023-05-20T16:11:17.794Z,30.92
2023-05-20T16:13:47.114Z,30.85
2023-05-20T16:16:17.842Z,27.88
2023-05-20T16:18:48.643Z,26.90
2023-05-20T16:21:18.183Z,23.38
2023-05-20T16:23:47.696Z,27.50
2023-05-20T16:26:17.277Z,27.85
2023-05-20T16:28:46.660Z,30.55
2023-05-20T16:31:16.102Z,30.10
2023-05-20T16:33:45.843Z,25.73
2023-05-20T16:36:15.186Z,30.27
2023-05-20T16:38:44.570Z,35.85
2023-05-20T16:41:15.965Z,32.15
2023-05-20T16:43:45.750Z,29.88
2023-05-20T16:46:15.532Z,29.70
2023-05-20T16:48:45.173Z,27.83
2023-05-20T16:51:14.494Z,25.25
2023-05-20T16:53:43.897Z,27.77
2023-05-20T16:56:13.168Z,33.45
2023-05-20T16:58:42.704Z,32.25
2023-05-20T17:01:12.410Z,28.20
2023-05-20T17:03:41.957Z,30.45
2023-05-20T17:06:11.416Z,25.20
2023-05-20T17:08:40.898Z,29.85
2023-05-20T17:11:10.272Z,30.20
2023-05-20T17:13:42.527Z,34.30
2023-05-20T17:16:13.025Z,35.40
2023-05-20T17:18:42.774Z,31.85
2023-05-20T17:21:13.159Z,32.67
2023-05-20T17:23:43.842Z,29.88
2023-05-20T17:26:13.204Z,38.58
2023-05-20T17:28:42.700Z,36.83
2023-05-20T17:31:12.514Z,39.50
2023-05-20T17:33:41.889Z,40.10
2023-05-20T17:36:11.602Z,29.75
2023-05-20T17:38:40.933Z,38.40
2023-05-20T17:41:10.325Z,30.38
2023-05-20T17:43:39.655Z,30.15
2023-05-20T17:46:09.053Z,33.40
2023-05-20T17:48:38.523Z,35.05
2023-05-20T17:51:08.109Z,34.72
2023-05-20T17:53:37.419Z,32.90
2023-05-20T17:56:07.370Z,31.08
2023-05-20T17:58:42.027Z,32.22
2023-05-20T18:01:11.630Z,38.28
2023-05-20T18:03:41.740Z,31.05
2023-05-20T18:06:11.305Z,33.97
2023-05-20T18:08:40.769Z,36.78
2023-05-20T18:11:15.813Z,38.65
2023-05-20T18:13:45.659Z,35.42
2023-05-20T18:16:15.305Z,37.72
2023-05-20T18:18:45.197Z,35.17
2023-05-20T18:21:14.785Z,32.15
2023-05-20T18:23:44.108Z,29.13
2023-05-20T18:26:13.684Z,36.88
2023-05-20T18:28:43.352Z,37.58
2023-05-20T18:31:13.029Z,35.67
2023-05-20T18:33:42.649Z,28.25
2023-05-20T18:36:12.196Z,29.92
2023-05-20T18:38:42.091Z,38.13
2023-05-20T18:41:11.700Z,31.52
2023-05-20T18:43:41.080Z,28.98
2023-05-20T18:46:10.476Z,29.80
2023-05-20T18:48:39.850Z,30.65
2023-05-20T18:51:09.311Z,38.22
2023-05-20T18:53:38.706Z,35.13
2023-05-20T18:56:08.955Z,33.17
2023-05-20T18:58:38.363Z,39.85
2023-05-20T19:01:08.237Z,31.95
2023-05-20T19:03:38.113Z,31.08
2023-05-20T19:06:07.748Z,33.20
2023-05-20T19:08:37.366Z,30.98
2023-05-20T19:11:07.114Z,33.22
2023-05-20T19:13:36.635Z,36.53
2023-05-20T19:16:06.740Z,38.83
2023-05-20T19:18:37.269Z,37.13
2023-05-20T19:21:06.972Z,34.17
2023-05-20T19:23:36.364Z,31.75
2023-05-20T19:26:05.771Z,29.00
2023-05-20T19:28:35.258Z,33.17
2023-05-20T19:31:04.698Z,35.60
2023-05-20T19:33:34.124Z,34.92
2023-05-20T19:36:03.480Z,33.47
2023-05-20T19:38:32.812Z,35.10
2023-05-20T19:41:02.152Z,36.88
2023-05-20T19:43:31.738Z,38.13
2023-05-20T19:46:10.575Z,34.92
2023-05-20T19:48:39.999Z,33.80
2023-05-20T19:51:11.486Z,32.60
2023-05-20T19:53:40.943Z,35.60
2023-05-20T19:56:10.388Z,31.55
2023-05-20T19:58:39.797Z,36.58
2023-05-20T20:01:09.238Z,40.08
2023-05-20T20:03:38.669Z,35.83
2023-05-20T20:06:08.100Z,33.20
2023-05-20T20:08:40.478Z,31.70
2023-05-20T20:11:10.450Z,37.30
2023-05-20T20:13:39.804Z,27.20
2023-05-20T20:16:09.579Z,34.08
2023-05-20T20:18:39.153Z,36.75
2023-05-20T20:21:10.244Z,36.67
2023-05-20T20:23:40.244Z,34.35
2023-05-20T20:26:10.970Z,32.63
2023-05-20T20:28:40.619Z,34.97
2023-05-20T20:31:09.960Z,34.50
2023-05-20T20:33:39.293Z,31.90
2023-05-20T20:36:10.163Z,33.88
2023-05-20T20:38:39.718Z,33.75
2023-05-20T20:41:10.652Z,33.97
2023-05-20T20:43:39.996Z,29.95
2023-05-20T20:46:10.365Z,33.53
2023-05-20T20:48:39.789Z,29.15
2023-05-20T20:51:09.084Z,35.95
2023-05-20T20:53:38.461Z,34.05
2023-05-20T20:56:07.915Z,29.90
2023-05-20T20:58:38.678Z,27.05
2023-05-20T21:01:08.844Z,32.38
2023-05-20T21:03:41.331Z,35.53
2023-05-20T21:06:10.796Z,29.48
2023-05-20T21:08:40.534Z,32.28
2023-05-20T21:11:10.024Z,28.83
2023-05-20T21:13:40.653Z,30.85
2023-05-20T21:16:10.842Z,38.30
2023-05-20T21:18:40.659Z,29.73
2023-05-20T21:21:13.263Z,28.60
2023-05-20T21:23:43.212Z,39.75
2023-05-20T21:26:12.470Z,33.72
2023-05-20T21:28:41.876Z,38.58
2023-05-20T21:31:11.316Z,30.88
2023-05-20T21:33:41.153Z,35.55
2023-05-20T21:36:10.828Z,31.77
2023-05-20T21:38:40.313Z,35.40
2023-05-20T21:41:10.038Z,32.38
2023-05-20T21:43:39.540Z,27.63
2023-05-20T21:46:08.984Z,29.50
2023-05-20T21:48:38.332Z,33.08
2023-05-20T21:51:07.696Z,31.27
2023-05-20T21:53:36.980Z,32.20
2023-05-20T21:56:06.597Z,34.35
2023-05-20T21:58:41.818Z,36.83
2023-05-20T22:01:11.741Z,30.63
2023-05-20T22:03:41.231Z,35.15
2023-05-20T22:06:12.235Z,32.22
2023-05-20T22:08:42.005Z,32.78
2023-05-20T22:11:11.371Z,27.17
2023-05-20T22:13:42.726Z,32.63
2023-05-20T22:16:12.247Z,35.72
2023-05-20T22:18:42.421Z,26.75
2023-05-20T22:21:12.197Z,31.67
2023-05-20T22:23:42.810Z,33.78
2023-05-20T22:26:12.246Z,26.05
2023-05-20T22:28:41.624Z,33.20
2023-05-20T22:31:11.112Z,31.25
2023-05-20T22:33:42.394Z,31.25
2023-05-20T22:36:11.769Z,28.85
2023-05-20T22:38:41.069Z,29.38
2023-05-20T22:41:10.515Z,32.42
2023-05-20T22:43:39.939Z,30.42
2023-05-20T22:46:09.394Z,32.35
2023-05-20T22:48:38.815Z,28.95
2023-05-20T22:51:09.938Z,31.02
2023-05-20T22:53:39.405Z,34.92
2023-05-20T22:56:09.836Z,31.33
2023-05-20T22:58:40.765Z,30.42
2023-05-20T23:01:10.183Z,29.75
2023-05-20T23:03:41.185Z,32.47
2023-05-20T23:06:10.540Z,28.70
2023-05-20T23:08:39.914Z,35.95
2023-05-20T23:11:09.256Z,33.90
2023-05-20T23:13:38.658Z,32.03
2023-05-20T23:16:08.858Z,32.15
2023-05-20T23:18:38.918Z,29.48
2023-05-20T23:21:08.515Z,32.05
2023-05-20T23:23:37.848Z,27.48
2023-05-20T23:26:07.312Z,35.25
2023-05-20T23:28:36.681Z,36.33
2023-05-20T23:31:06.013Z,31.95
2023-05-20T23:33:35.445Z,39.08
2023-05-20T23:36:05.051Z,30.45
2023-05-20T23:38:34.468Z,33.05
2023-05-20T23:41:03.819Z,35.80
2023-05-20T23:43:33.157Z,27.90
2023-05-20T23:46:02.622Z,30.83
2023-05-20T23:48:31.921Z,36.17
2023-05-20T23:51:01.549Z,34.40
2023-05-20T23:53:31.167Z,36.55
2023-05-20T23:56:00.669Z,36.22
2023-05-20T23:58:29.974Z,34.35
